• Join FlightAware (Why Join?)
  • Login
  • US Flag 
06:30AM EDT


 

Airport Tracker/Info


-or-


 

Live Flight TrackerFlight Track Log ✈ VH-KFN ✈ 04-Dec-2013 ✈ YPKA / KTA - YBWX / BWB

Flight Track Log - Related Links

Times and Time Zones

All times are in EST time to prevent confusion due to time zone crossing. See the VH-KFN flight status page for this flight to view local times or setup timezone preferences in your user account.

Time Position Orientation Groundspeed Altitude Reporting Facility
EST Latitude Longitude Course Direction KTS MPH feet Rate Location/Type
05:16PM -20.7151 116.7739 263° West  Level Aus ATC (Calculated)
05:17PM -20.7248 116.6884 263° West  Level Aus ATC (Calculated)
05:19PM -20.7335 116.6123 263° West  Level FlightAware Approximate
05:19PM -20.7339 116.6083 263° West  Level Aus ATC (Calculated)
05:20PM -20.7394 116.5597 263° West  Level FlightAware Approximate
05:20PM -20.7424 116.5331 263° West  Level Aus ATC (Calculated)
05:21PM -20.7430 116.5277 263° West  Level FlightAware Approximate
05:22PM -20.7510 116.4569 263° West  Level FlightAware Approximate
05:22PM -20.7583 116.3921 83° East  Level Aus ATC (Calculated)
05:23PM -20.7569 116.4044 263° West  Level FlightAware Approximate
05:24PM -20.7673 116.3116 263° West  Level FlightAware Approximate
05:24PM -20.7720 116.2688 263° West  Level Aus ATC (Calculated)
05:25PM -20.7731 116.2590 263° West  Level FlightAware Approximate
05:26PM -20.7800 116.1969 263° West  Level FlightAware Approximate
05:27PM -20.7858 116.1444 263° West  Level FlightAware Approximate
05:27PM -20.7899 116.1068 263° West  Level Aus ATC (Calculated)
05:28PM -20.7916 116.0918 263° West  Level FlightAware Approximate
05:29PM -20.7989 116.0253 263° West  Level FlightAware Approximate
05:30PM -20.8047 115.9727 263° West  Level FlightAware Approximate
05:30PM -20.8092 115.9313 263° West  Level Aus ATC (Calculated)
05:32PM -20.8181 115.8498 263° West  Level FlightAware Approximate
05:33PM -20.8238 115.7972 263° West  Level FlightAware Approximate
05:33PM -20.8306 115.7339 263° West  Level Aus ATC (Calculated)
05:35PM -20.8394 115.6523 263° West  Level FlightAware Approximate
05:36PM -20.8451 115.5997 263° West  Level FlightAware Approximate
05:36PM -20.8571 115.4869 263° West  Level Aus ATC (Calculated)
05:37PM -20.8615 115.4458 265° West  Level Aus ATC (Calculated)
05:39PM -20.8644 115.4061 264° West  Level Estimated
05:40PM -20.8644 115.4061 225° Southwest  Level Estimated
05:41PM -20.8644 115.4061 225° Southwest  Level Estimated
05:42PM -20.8644 115.4061 225° Southwest  Level Estimated
05:43PM -20.8659 115.4046 263° West  Level FlightAware Approximate
05:44PM -20.8644 115.4061 263° West  Level Estimated
05:45PM -20.8659 115.4046 263° West  Level FlightAware Approximate
05:46PM -20.8644 115.4061 263° West  Level Estimated
05:47PM -20.8659 115.4046 263° West  Level FlightAware Approximate
05:48PM -20.8644 115.4061 263° West  Level Estimated
05:49PM -20.8659 115.4046 263° West  Level FlightAware Approximate
05:50PM -20.8644 115.4061 263° West  Level Estimated
05:51PM -20.8659 115.4046 263° West  Level FlightAware Approximate
05:52PM -20.8644 115.4061 263° West  Level Estimated
05:53PM -20.8659 115.4046 263° West  Level FlightAware Approximate
05:54PM -20.8644 115.4061 263° West  Level Estimated
05:55PM -20.8659 115.4046 263° West  Level FlightAware Approximate
05:56PM -20.8644 115.4061 263° West  Level Estimated
05:57PM -20.8659 115.4046 263° West  Level FlightAware Approximate
05:58PM -20.8644 115.4061 263° West  Level Estimated
07:25PM -20.8292 115.7472 263° West  Level Aus ATC (Calculated)
07:26PM -20.8384 115.6616 263° West  Level Aus ATC (Calculated)
07:29PM -20.8659 115.4046 263° West  Level Aus ATC (Calculated)